KIAB

Mc Connell AFB Airport

Wichita, Kansas, USA
METAR KIAB 172056Z AUTO 34019G25KT 10SM CLR 15/M11 A3009 RMK AO2 SLP195 T01541111 50004
Observed Flight Rules
Feb-17 @ 20:56 UTC (39 minutes ago) Visual Flight Rules
Wind Visibility Clouds
340° at 19 knots
 Gusting to 25 knots
10 miles
  • Clear skies
Temperatures Readings
Current 15°C / 59°F
Dewpoint -11°C / 12°F
Humidity 16%
Altimeter 30.09" Hg
Pressure 1019.5 hPa
Elevation 418
METAR KIAB 172056Z AUTO 34019G25KT 10SM CLR 15/M11 A3009 RMK AO2 SLP195 T01541111 50004
Observed Flight Rules
Feb-17 @ 20:56 UTC
(39 minutes ago)
VFR
Wind Visibility
340° at 19 knots
 Gusting to 25 knots
10 miles
Clouds
  • Clear skies
Temperature Dewpoint
15°C / 59°F -11°C / 12°F
Humidity Altimeter Pressure
16% 30.09" Hg 1019.5 hPa